createdAt,value
2019-02-12T00:01:32.057Z,2.30
2019-02-12T00:04:02.590Z,2.63
2019-02-12T00:06:33.048Z,2.53
2019-02-12T00:09:05.275Z,1.97
2019-02-12T00:11:35.712Z,2.50
2019-02-12T00:14:06.174Z,2.43
2019-02-12T00:16:36.599Z,2.97
2019-02-12T00:19:07.005Z,2.87
2019-02-12T00:21:37.398Z,2.30
2019-02-12T00:24:07.887Z,2.60
2019-02-12T00:26:38.257Z,3.00
2019-02-12T00:29:08.646Z,2.93
2019-02-12T00:31:39.080Z,2.50
2019-02-12T00:34:09.522Z,3.50
2019-02-12T00:36:39.974Z,2.70
2019-02-12T00:39:10.351Z,2.43
2019-02-12T00:41:41.563Z,2.63
2019-02-12T00:44:11.976Z,2.70
2019-02-12T00:46:42.459Z,3.13
2019-02-12T00:49:13.035Z,2.50
2019-02-12T00:51:43.446Z,3.17
2019-02-12T00:54:13.832Z,3.10
2019-02-12T00:56:44.315Z,2.80
2019-02-12T00:59:14.787Z,2.70
2019-02-12T01:01:45.250Z,2.93
2019-02-12T01:04:15.635Z,2.97
2019-02-12T01:06:46.012Z,2.83
2019-02-12T01:09:16.498Z,2.97
2019-02-12T01:11:47.059Z,3.00
2019-02-12T01:14:17.528Z,2.90
2019-02-12T01:16:48.222Z,2.60
2019-02-12T01:19:18.705Z,2.63
2019-02-12T01:21:49.099Z,2.80
2019-02-12T01:24:19.559Z,2.87
2019-02-12T01:26:50.176Z,2.33
2019-02-12T01:29:20.553Z,2.37
2019-02-12T01:31:51.048Z,2.40
2019-02-12T01:34:21.476Z,2.57
2019-02-12T01:36:51.933Z,2.47
2019-02-12T01:39:22.380Z,2.33
2019-02-12T01:41:53.564Z,3.07
2019-02-12T01:44:23.942Z,2.63
2019-02-12T01:46:54.371Z,2.47
2019-02-12T01:49:24.747Z,2.37
2019-02-12T01:51:55.808Z,2.37
2019-02-12T01:54:26.186Z,2.50
2019-02-12T01:56:56.570Z,2.33
2019-02-12T01:59:27.405Z,2.27
2019-02-12T02:01:57.988Z,1.90
2019-02-12T02:04:28.987Z,2.50
2019-02-12T02:06:59.462Z,2.60
2019-02-12T02:09:30.019Z,2.43
2019-02-12T02:12:01.471Z,2.67
2019-02-12T02:14:32.204Z,2.00
2019-02-12T02:17:02.690Z,2.97
2019-02-12T02:19:33.145Z,1.93
2019-02-12T02:22:03.558Z,3.20
2019-02-12T02:24:34.053Z,2.80
2019-02-12T02:27:04.550Z,2.60
2019-02-12T02:29:35.067Z,2.10
2019-02-12T02:32:05.547Z,2.80
2019-02-12T02:34:36.898Z,2.10
2019-02-12T02:37:07.465Z,2.13
2019-02-12T02:39:38.024Z,2.90
2019-02-12T02:42:09.953Z,2.57
2019-02-12T02:44:40.342Z,1.97
2019-02-12T02:47:10.726Z,1.80
2019-02-12T02:49:41.203Z,1.80
2019-02-12T02:52:11.577Z,1.80
2019-02-12T02:54:42.012Z,1.87
2019-02-12T02:57:12.396Z,1.20
2019-02-12T02:59:42.919Z,2.03
2019-02-12T03:02:14.053Z,1.60
2019-02-12T03:04:44.544Z,2.17
2019-02-12T03:07:14.982Z,1.77
2019-02-12T03:09:45.453Z,1.43
2019-02-12T03:12:16.018Z,1.90
2019-02-12T03:14:46.432Z,1.77
2019-02-12T03:17:17.034Z,1.40
2019-02-12T03:19:47.919Z,1.20
2019-02-12T03:22:18.368Z,1.27
2019-02-12T03:24:49.487Z,1.33
2019-02-12T03:27:19.928Z,1.33
2019-02-12T03:29:50.442Z,1.20
2019-02-12T03:32:20.930Z,1.03
2019-02-12T03:34:51.417Z,1.47
2019-02-12T03:37:21.936Z,1.20
2019-02-12T03:39:52.344Z,0.90
2019-02-12T03:42:24.009Z,0.70
2019-02-12T03:44:54.483Z,0.70
2019-02-12T03:47:25.048Z,0.70
2019-02-12T03:49:55.646Z,1.27
2019-02-12T03:52:26.082Z,1.00
2019-02-12T03:54:56.641Z,0.70
2019-02-12T03:57:27.239Z,0.83
2019-02-12T03:59:57.902Z,1.00
2019-02-12T04:02:28.426Z,0.80
2019-02-12T04:04:59.062Z,0.53
2019-02-12T04:07:29.608Z,0.90
2019-02-12T04:10:00.540Z,0.77
2019-02-12T04:12:31.106Z,1.17
2019-02-12T04:15:01.729Z,0.70
2019-02-12T04:17:32.114Z,1.03
2019-02-12T04:20:02.674Z,0.83
2019-02-12T04:22:33.933Z,0.90
2019-02-12T04:25:04.636Z,0.80
2019-02-12T04:27:35.130Z,0.50
2019-02-12T04:30:06.977Z,0.80
2019-02-12T04:32:37.503Z,0.70
2019-02-12T04:35:08.613Z,0.90
2019-02-12T04:37:39.160Z,0.70
2019-02-12T04:40:11.795Z,0.70
2019-02-12T04:42:43.093Z,0.80
2019-02-12T04:45:13.712Z,0.97
2019-02-12T04:47:44.108Z,0.73
2019-02-12T04:50:15.904Z,1.07
2019-02-12T04:52:46.382Z,1.00
2019-02-12T04:55:16.957Z,0.80
2019-02-12T04:57:47.423Z,1.00
2019-02-12T05:00:18.885Z,0.80
2019-02-12T05:02:49.412Z,1.30
2019-02-12T05:05:19.878Z,1.10
2019-02-12T05:07:50.526Z,1.10
2019-02-12T05:10:31.658Z,0.77
2019-02-12T05:13:02.213Z,0.80
2019-02-12T05:15:32.880Z,0.83
2019-02-12T05:18:03.719Z,1.23
2019-02-12T05:20:34.389Z,1.37
2019-02-12T05:23:04.908Z,1.30
2019-02-12T05:25:35.393Z,1.00
2019-02-12T05:28:05.906Z,1.00
2019-02-12T05:30:36.575Z,1.00
2019-02-12T05:33:07.125Z,1.50
2019-02-12T05:35:37.531Z,1.00
2019-02-12T05:38:08.059Z,0.73
2019-02-12T05:40:38.538Z,0.90
2019-02-12T05:43:13.038Z,1.03
2019-02-12T05:45:43.499Z,1.13
2019-02-12T05:48:13.911Z,1.10
2019-02-12T05:50:44.425Z,1.00
2019-02-12T05:53:14.824Z,2.83
2019-02-12T05:55:45.384Z,1.80
2019-02-12T05:58:16.081Z,2.10
2019-02-12T06:00:46.618Z,1.47
2019-02-12T06:03:17.020Z,1.33
2019-02-12T06:05:47.469Z,1.40
2019-02-12T06:08:18.034Z,1.50
2019-02-12T06:10:48.503Z,1.67
2019-02-12T06:13:20.031Z,2.23
2019-02-12T06:15:50.824Z,1.73
2019-02-12T06:18:23.557Z,1.80
2019-02-12T06:20:54.109Z,1.33
2019-02-12T06:23:24.747Z,1.57
2019-02-12T06:25:56.161Z,1.30
2019-02-12T06:28:26.565Z,1.83
2019-02-12T06:30:57.798Z,2.30
2019-02-12T06:33:29.269Z,2.23
2019-02-12T06:35:59.768Z,2.73
2019-02-12T06:38:31.250Z,2.37
2019-02-12T06:41:01.869Z,2.20
2019-02-12T06:43:33.179Z,2.70
2019-02-12T06:46:03.672Z,2.93
2019-02-12T06:48:34.085Z,2.37
2019-02-12T06:51:04.637Z,2.77
2019-02-12T06:53:35.094Z,2.77
2019-02-12T06:56:05.677Z,2.60
2019-02-12T06:58:36.221Z,2.53
2019-02-12T07:01:06.701Z,2.47
2019-02-12T07:03:50.423Z,2.80
2019-02-12T07:06:43.163Z,2.33
2019-02-12T07:09:33.058Z,2.83
2019-02-12T07:12:31.722Z,3.00
2019-02-12T07:15:21.782Z,2.77
2019-02-12T07:18:23.062Z,3.30
2019-02-12T07:21:18.387Z,2.67
2019-02-12T07:24:07.851Z,2.90
2019-02-12T07:27:11.394Z,3.10
2019-02-12T07:30:07.289Z,3.10
2019-02-12T07:32:53.432Z,3.10
2019-02-12T07:35:47.352Z,2.83
2019-02-12T07:38:37.086Z,2.70
2019-02-12T07:41:29.781Z,3.40
2019-02-12T07:44:27.550Z,2.67
2019-02-12T07:47:24.081Z,2.40
2019-02-12T07:50:18.173Z,1.47
2019-02-12T07:53:08.122Z,1.27
2019-02-12T07:56:17.498Z,0.90
2019-02-12T07:59:01.236Z,1.13
2019-02-12T08:01:47.644Z,0.80
2019-02-12T08:04:34.317Z,1.23
2019-02-12T08:07:30.217Z,1.30
2019-02-12T08:10:20.025Z,1.00
2019-02-12T08:13:13.223Z,1.10
2019-02-12T08:16:05.933Z,1.20
2019-02-12T08:18:52.739Z,1.10
2019-02-12T08:21:36.586Z,1.07
2019-02-12T08:24:35.483Z,1.00
2019-02-12T08:27:44.224Z,0.90
2019-02-12T08:30:40.049Z,1.00
2019-02-12T08:33:18.428Z,0.77
2019-02-12T08:36:20.117Z,0.50
2019-02-12T08:39:00.924Z,1.10
2019-02-12T08:42:13.096Z,1.23
2019-02-12T08:45:14.000Z,0.97
2019-02-12T08:48:08.177Z,0.90
2019-02-12T08:51:04.228Z,1.10
2019-02-12T08:53:53.749Z,0.73
2019-02-12T08:56:40.846Z,0.90
2019-02-12T08:59:30.684Z,1.00
2019-02-12T09:02:47.536Z,0.77
2019-02-12T09:05:40.259Z,1.13
2019-02-12T09:08:49.482Z,1.10
2019-02-12T09:11:27.202Z,0.90
2019-02-12T09:14:08.046Z,0.90
2019-02-12T09:17:05.368Z,0.90
2019-02-12T09:19:46.091Z,1.20
2019-02-12T09:22:59.924Z,0.97
2019-02-12T09:25:46.725Z,1.00
2019-02-12T09:28:27.494Z,0.97
2019-02-12T09:31:27.968Z,0.70
2019-02-12T09:34:43.295Z,1.50
2019-02-12T09:37:34.045Z,1.10
2019-02-12T09:40:31.546Z,1.83
2019-02-12T09:43:24.588Z,1.20
2019-02-12T09:46:16.701Z,1.30
2019-02-12T09:49:18.622Z,1.20
2019-02-12T09:52:18.571Z,1.20
2019-02-12T09:55:32.467Z,1.23
2019-02-12T09:58:22.468Z,1.40
2019-02-12T10:01:12.175Z,1.23
2019-02-12T10:04:10.875Z,1.07
2019-02-12T10:06:51.705Z,1.37
2019-02-12T10:09:35.659Z,1.67
2019-02-12T10:12:18.854Z,0.90
2019-02-12T10:15:14.333Z,1.37
2019-02-12T10:18:14.706Z,1.33
2019-02-12T10:20:55.171Z,1.57
2019-02-12T10:23:44.752Z,1.50
2019-02-12T10:26:25.668Z,1.50
2019-02-12T10:29:23.131Z,1.30
2019-02-12T10:31:51.917Z,1.63
2019-02-12T10:34:22.360Z,1.40
2019-02-12T10:36:52.885Z,0.93
2019-02-12T10:39:23.497Z,1.00
2019-02-12T10:41:55.069Z,1.50
2019-02-12T10:44:25.539Z,0.83
2019-02-12T10:46:56.090Z,1.20
2019-02-12T10:49:26.554Z,0.90
2019-02-12T10:51:57.092Z,1.20
2019-02-12T10:54:28.167Z,1.50
2019-02-12T10:56:58.789Z,1.30
2019-02-12T10:59:29.478Z,0.93
2019-02-12T11:02:00.106Z,1.00
2019-02-12T11:04:30.601Z,1.30
2019-02-12T11:07:01.244Z,1.20
2019-02-12T11:09:31.834Z,1.00
2019-02-12T11:12:02.587Z,1.40
2019-02-12T11:17:26.568Z,1.27
2019-02-12T11:19:57.099Z,1.10
2019-02-12T11:22:27.633Z,1.00
2019-02-12T11:24:58.163Z,1.33
2019-02-12T11:27:28.736Z,1.17
2019-02-12T11:30:02.526Z,1.10
2019-02-12T11:32:34.491Z,0.77
2019-02-12T11:35:10.785Z,0.93
2019-02-12T11:37:41.668Z,0.77
2019-02-12T11:40:14.045Z,2.00
2019-02-12T11:42:46.342Z,1.27
2019-02-12T11:45:17.045Z,1.30
2019-02-12T11:47:48.557Z,1.17
2019-02-12T11:50:19.535Z,1.00
2019-02-12T11:52:50.101Z,0.73
2019-02-12T11:55:20.983Z,0.90
2019-02-12T11:57:51.451Z,1.37
2019-02-12T12:00:38.173Z,1.23
2019-02-12T12:03:08.790Z,1.07
2019-02-12T12:05:39.248Z,0.90
2019-02-12T12:08:09.842Z,1.87
2019-02-12T12:10:41.966Z,1.83
2019-02-12T12:13:13.325Z,1.13
2019-02-12T12:15:43.848Z,1.30
2019-02-12T12:18:14.302Z,1.30
2019-02-12T12:20:44.894Z,1.40
2019-02-12T12:23:15.336Z,1.50
2019-02-12T12:25:45.808Z,1.40
2019-02-12T12:28:16.345Z,1.43
2019-02-12T12:30:46.954Z,1.33
2019-02-12T12:33:17.427Z,1.67
2019-02-12T12:35:49.594Z,1.70
2019-02-12T12:38:20.836Z,1.40
2019-02-12T12:40:51.326Z,1.67
2019-02-12T12:43:21.964Z,1.33
2019-02-12T12:45:52.419Z,1.10
2019-02-12T12:48:24.745Z,1.40
2019-02-12T12:50:55.226Z,1.07
2019-02-12T12:53:25.656Z,1.30
2019-02-12T12:55:56.122Z,1.50
2019-02-12T12:58:26.612Z,1.27
2019-02-12T13:00:58.327Z,1.37
2019-02-12T13:03:28.899Z,1.20
2019-02-12T13:05:59.477Z,1.70
2019-02-12T13:08:29.987Z,1.27
2019-02-12T13:11:01.490Z,1.40
2019-02-12T13:13:32.066Z,1.17
2019-02-12T13:16:03.919Z,1.30
2019-02-12T13:21:41.627Z,1.23
2019-02-12T13:24:12.907Z,1.10
2019-02-12T13:26:43.478Z,1.70
2019-02-12T13:29:14.000Z,0.97
2019-02-12T13:31:44.435Z,1.27
2019-02-12T13:34:15.077Z,1.50
2019-02-12T13:36:47.449Z,1.27
2019-02-12T13:39:18.009Z,0.87
2019-02-12T13:41:50.397Z,1.63
2019-02-12T13:44:20.787Z,1.53
2019-02-12T13:46:52.443Z,1.27
2019-02-12T13:49:23.609Z,1.73
2019-02-12T13:51:54.013Z,2.23
2019-02-12T13:54:25.450Z,1.40
2019-02-12T13:56:55.914Z,1.50
2019-02-12T13:59:26.437Z,1.57
2019-02-12T14:01:56.861Z,2.17
2019-02-12T14:04:29.298Z,1.70
2019-02-12T14:07:00.239Z,1.53
2019-02-12T14:09:31.378Z,1.70
2019-02-12T14:12:01.902Z,1.17
2019-02-12T14:14:35.399Z,1.57
2019-02-12T14:17:05.943Z,1.80
2019-02-12T14:19:36.508Z,1.30
2019-02-12T14:22:07.138Z,1.33
2019-02-12T14:24:38.293Z,1.20
2019-02-12T14:27:08.735Z,1.80
2019-02-12T14:29:39.210Z,1.60
2019-02-12T14:32:09.744Z,1.70
2019-02-12T14:34:40.175Z,1.37
2019-02-12T14:37:10.602Z,2.13
2019-02-12T14:39:41.084Z,1.50
2019-02-12T14:42:12.637Z,1.60
2019-02-12T14:44:43.121Z,1.70
2019-02-12T14:47:13.592Z,2.00
2019-02-12T14:49:44.991Z,1.20
2019-02-12T14:52:15.918Z,1.97
2019-02-12T14:54:46.354Z,1.93
2019-02-12T14:57:16.981Z,1.60
2019-02-12T14:59:47.413Z,1.63
2019-02-12T15:02:17.909Z,1.80
2019-02-12T15:04:48.476Z,1.40
2019-02-12T15:07:18.929Z,1.97
2019-02-12T15:09:49.473Z,1.60
2019-02-12T15:12:20.481Z,1.80
2019-02-12T15:14:50.923Z,1.33
2019-02-12T15:17:22.192Z,1.67
2019-02-12T15:19:52.600Z,1.30
2019-02-12T15:22:23.127Z,2.03
2019-02-12T15:24:53.625Z,2.20
2019-02-12T15:27:24.590Z,1.60
2019-02-12T15:29:55.172Z,1.77
2019-02-12T15:32:25.643Z,1.90
2019-02-12T15:34:56.212Z,2.23
2019-02-12T15:37:26.639Z,2.00
2019-02-12T15:39:57.254Z,2.17
2019-02-12T15:42:27.799Z,2.10
2019-02-12T15:44:58.454Z,1.97
2019-02-12T15:47:28.988Z,1.90
2019-02-12T15:50:01.249Z,1.60
2019-02-12T15:52:33.186Z,1.60
2019-02-12T15:55:07.028Z,1.40
2019-02-12T15:57:37.591Z,1.93
2019-02-12T16:00:12.500Z,1.83
2019-02-12T16:02:43.268Z,1.60
2019-02-12T16:05:15.075Z,1.10
2019-02-12T16:07:47.388Z,1.83
2019-02-12T16:10:19.991Z,1.90
2019-02-12T16:12:51.772Z,1.73
2019-02-12T16:15:24.682Z,1.80
2019-02-12T16:17:54.432Z,1.50
2019-02-12T16:20:24.977Z,1.53
2019-02-12T16:22:55.386Z,2.07
2019-02-12T16:25:25.859Z,2.00
2019-02-12T16:27:56.431Z,2.83
2019-02-12T16:30:27.126Z,1.80
2019-02-12T16:32:57.698Z,1.77
2019-02-12T16:35:28.124Z,1.77
2019-02-12T16:37:59.613Z,1.70
2019-02-12T16:40:30.259Z,1.77
2019-02-12T16:43:00.829Z,2.00
2019-02-12T16:45:48.794Z,1.87
2019-02-12T16:48:19.516Z,1.57
2019-02-12T16:50:51.640Z,1.63
2019-02-12T16:53:22.102Z,1.20
2019-02-12T16:55:52.662Z,1.60
2019-02-12T16:58:23.241Z,1.93
2019-02-12T17:00:53.954Z,1.00
2019-02-12T17:03:25.615Z,1.13
2019-02-12T17:05:56.076Z,1.53
2019-02-12T17:08:26.618Z,1.60
2019-02-12T17:10:57.147Z,1.30
2019-02-12T17:13:27.723Z,1.53
2019-02-12T17:15:58.707Z,1.53
2019-02-12T17:18:29.121Z,2.00
2019-02-12T17:20:59.779Z,1.93
2019-02-12T17:23:30.278Z,1.60
2019-02-12T17:26:00.804Z,1.80
2019-02-12T17:28:31.496Z,1.83
2019-02-12T17:31:02.023Z,1.70
2019-02-12T17:33:32.766Z,2.63
2019-02-12T17:36:04.111Z,2.80
2019-02-12T17:38:34.527Z,2.70
2019-02-12T17:41:10.032Z,2.80
2019-02-12T17:43:40.509Z,2.50
2019-02-12T17:46:11.931Z,2.10
2019-02-12T17:48:42.477Z,1.73
2019-02-12T17:51:14.802Z,2.50
2019-02-12T17:53:45.425Z,1.43
2019-02-12T17:56:15.904Z,1.83
2019-02-12T17:58:46.372Z,2.17
2019-02-12T18:01:18.026Z,1.83
2019-02-12T18:03:50.340Z,2.20
2019-02-12T18:06:20.978Z,2.00
2019-02-12T18:08:52.324Z,2.20
2019-02-12T18:11:22.939Z,2.60
2019-02-12T18:13:54.302Z,2.13
2019-02-12T18:16:24.809Z,2.10
2019-02-12T18:18:55.353Z,1.93
2019-02-12T18:21:26.313Z,2.13
2019-02-12T18:23:57.251Z,2.40
2019-02-12T18:26:33.098Z,2.90
2019-02-12T18:28:59.917Z,2.20
2019-02-12T18:31:30.648Z,2.57
2019-02-12T18:34:01.507Z,2.33
2019-02-12T18:36:32.091Z,2.80
2019-02-12T18:39:03.574Z,2.50
2019-02-12T18:41:34.061Z,2.60
2019-02-12T18:44:04.583Z,4.13
2019-02-12T18:46:35.065Z,3.13
2019-02-12T18:49:05.577Z,4.03
2019-02-12T18:51:37.752Z,3.60
2019-02-12T18:54:08.213Z,3.30
2019-02-12T18:56:41.573Z,3.57
2019-02-12T18:59:11.205Z,3.00
2019-02-12T19:01:41.606Z,3.10
2019-02-12T19:04:12.117Z,3.40
2019-02-12T19:06:42.749Z,3.50
2019-02-12T19:09:14.411Z,3.70
2019-02-12T19:11:53.943Z,3.80
2019-02-12T19:14:17.146Z,2.70
2019-02-12T19:16:47.555Z,3.20
2019-02-12T19:19:18.020Z,4.17
2019-02-12T19:21:49.324Z,4.57
2019-02-12T19:24:19.800Z,4.07
2019-02-12T19:26:50.292Z,4.50
2019-02-12T19:29:20.688Z,4.10
2019-02-12T19:31:58.986Z,4.93
2019-02-12T19:34:23.222Z,3.50
2019-02-12T19:36:56.967Z,3.97
2019-02-12T19:39:31.003Z,3.03
2019-02-12T19:42:02.666Z,2.60
2019-02-12T19:44:33.215Z,2.37
2019-02-12T19:47:03.741Z,3.97
2019-02-12T19:52:10.394Z,2.70
2019-02-12T19:54:40.936Z,2.33
2019-02-12T19:57:11.782Z,2.90
2019-02-12T19:59:42.292Z,2.97
2019-02-12T20:02:14.062Z,2.97
2019-02-12T20:04:44.509Z,3.13
2019-02-12T20:07:15.008Z,2.73
2019-02-12T20:09:45.429Z,2.63
2019-02-12T20:12:15.833Z,2.70
2019-02-12T20:14:46.476Z,2.57
2019-02-12T20:17:17.036Z,2.07
2019-02-12T20:19:47.412Z,3.07
2019-02-12T20:22:18.081Z,2.67
2019-02-12T20:24:48.564Z,2.80
2019-02-12T20:27:19.070Z,3.10
2019-02-12T20:29:49.751Z,2.57
2019-02-12T20:32:20.155Z,2.87
2019-02-12T20:34:50.570Z,3.47
2019-02-12T20:37:24.503Z,2.43
2019-02-12T20:39:54.929Z,2.73
2019-02-12T20:42:25.328Z,2.53
2019-02-12T20:44:55.846Z,2.83
2019-02-12T20:47:26.669Z,1.97
2019-02-12T20:49:57.195Z,2.30
2019-02-12T20:52:29.021Z,2.03
2019-02-12T20:54:59.597Z,1.60
2019-02-12T20:57:30.719Z,2.50
2019-02-12T21:00:01.134Z,1.70
2019-02-12T21:02:31.911Z,1.93
2019-02-12T21:05:02.324Z,2.33
2019-02-12T21:07:32.754Z,2.70
2019-02-12T21:10:03.277Z,2.50
2019-02-12T21:12:34.533Z,2.53
2019-02-12T21:15:09.123Z,2.20
2019-02-12T21:17:39.535Z,2.30
2019-02-12T21:20:11.728Z,2.80
2019-02-12T21:22:42.472Z,2.53
2019-02-12T21:25:13.805Z,2.20
2019-02-12T21:27:44.275Z,1.97
2019-02-12T21:30:26.611Z,2.60
2019-02-12T21:32:57.334Z,2.20
2019-02-12T21:35:27.935Z,2.37
2019-02-12T21:37:59.262Z,2.23
2019-02-12T21:40:29.885Z,1.90
2019-02-12T21:43:00.309Z,2.10
2019-02-12T21:45:30.830Z,2.73
2019-02-12T21:48:01.555Z,2.47
2019-02-12T21:50:32.043Z,3.30
2019-02-12T21:53:03.288Z,3.97
2019-02-12T21:55:33.846Z,3.40
2019-02-12T21:58:04.422Z,4.60
2019-02-12T22:00:35.079Z,4.90
2019-02-12T22:03:06.034Z,4.30
2019-02-12T22:05:36.519Z,3.40
2019-02-12T22:08:07.040Z,3.47
2019-02-12T22:10:46.036Z,2.73
2019-02-12T22:13:10.580Z,3.77
2019-02-12T22:15:40.967Z,2.80
2019-02-12T22:18:11.579Z,2.90
2019-02-12T22:20:42.036Z,2.03
2019-02-12T22:23:12.549Z,2.17
2019-02-12T22:25:43.033Z,2.63
2019-02-12T22:28:13.464Z,2.33
2019-02-12T22:30:43.952Z,2.77
2019-02-12T22:33:14.504Z,2.63
2019-02-12T22:35:45.001Z,3.00
2019-02-12T22:38:15.411Z,2.47
2019-02-12T22:40:45.860Z,2.97
2019-02-12T22:43:16.437Z,2.37
2019-02-12T22:45:46.844Z,2.77
2019-02-12T22:48:17.378Z,2.57
2019-02-12T22:50:47.857Z,2.63
2019-02-12T22:53:19.135Z,2.03
2019-02-12T22:55:49.615Z,2.07
2019-02-12T22:58:20.160Z,3.87
2019-02-12T23:01:01.459Z,2.70
2019-02-12T23:03:32.018Z,2.53
2019-02-12T23:06:02.415Z,2.97
2019-02-12T23:08:33.129Z,3.57
2019-02-12T23:11:04.176Z,4.40
2019-02-12T23:13:34.708Z,3.10
2019-02-12T23:16:05.418Z,2.83
2019-02-12T23:18:35.988Z,3.03
2019-02-12T23:21:06.465Z,2.97
2019-02-12T23:23:36.904Z,2.60
2019-02-12T23:26:07.393Z,2.63
2019-02-12T23:28:37.876Z,2.30
2019-02-12T23:31:08.331Z,2.90
2019-02-12T23:33:38.933Z,2.50
2019-02-12T23:36:09.336Z,2.17
2019-02-12T23:38:40.388Z,1.80
2019-02-12T23:41:10.772Z,1.97
2019-02-12T23:43:41.180Z,2.00
2019-02-12T23:46:11.631Z,1.97
2019-02-12T23:48:42.094Z,2.17
2019-02-12T23:51:12.558Z,2.50
2019-02-12T23:53:43.791Z,2.10
2019-02-12T23:56:14.273Z,2.40
2019-02-12T23:58:44.788Z,2.60
